Wiggins, CO (80654)

1:24 PM MDT on July 28, 2016 (GMT -0600)
Peace Residence | | Change Station

Elev 4780 ft 40.09 °N, 104.24 °W | Updated 5 seconds ago

Scattered Clouds
Scattered Clouds
79.9 °F
Feels Like 81 °F
N
0.0
Wind Variable Wind from North
Gusts 0.0 mph

Today
High -- | Low -- °F
--% Chance of Precip.
Yesterday
High -- | Low -- °F
Precip. -- in
Pressure 30.18 in
Visibility 10.0 miles
Clouds Scattered Clouds 3700 ft
Heat Index 81 °F
Dew Point 59 °F
Humidity 49%
Rainfall 0.00 in
Snow Depth Not available.
5:50 AM 8:13 PM
Waning Crescent, 29% visible
METAR KFMM 281915Z AUTO 07018G23KT 10SM SCT037 25/13 A3018 RMK AO2 T02540134
Pressure 30.18 in
Visibility 10.0 miles
Clouds Scattered Clouds 3700 ft
Heat Index 81 °F
Dew Point 59 °F
Humidity 49%
Rainfall 0.00 in
Snow Depth Not available.
5:50 AM 8:13 PM
Waning Crescent, 29% visible
METAR KFMM 281915Z AUTO 07018G23KT 10SM SCT037 25/13 A3018 RMK AO2 T02540134

10-Day Weather Forecast

Almanac

Astronomy

Jul. 28, 2016 Rise Set
Actual Time
Civil Twilight
Nautical Twilight
Astronomical Twilight
Moon
Length of Visible Light
Length of Day
Tomorrow will be .
, % of the Moon is Illuminated

Today's Extremes

State Highs State Lows

Community

WunderPhotos

Upload Photos

1,928,191 photos uploaded!

WunderBlog® & News

Nearby

Air Quality

  Air Quality AQ Index Pollutant
Not available.

Snow Depth

Station Depth Elevation

Earthquake Activity

City Distance Mag. Time & Date
Minimum magnitude displayed is 2.5.

Coastal Water Temperatures

Place Temperature

Stations

Nearby Weather Stations

Station Location Temp. Windchill Dew Point Humidity Wind Precip. Elev Updated Type
                   

Watches & Warnings

There are currently no watches in effect.